sensor_id;sensor_type;location;lat;lon;timestamp;P1;durP1;ratioP1;P2;durP2;ratioP2
7903;SDS011;3997;48.416;8.512;2023-04-10T00:01:27;9.10;;;7.80;;
7903;SDS011;3997;48.416;8.512;2023-04-10T00:03:59;9.18;;;8.18;;
7903;SDS011;3997;48.416;8.512;2023-04-10T00:06:26;10.38;;;8.45;;
7903;SDS011;3997;48.416;8.512;2023-04-10T00:08:53;8.75;;;7.68;;
7903;SDS011;3997;48.416;8.512;2023-04-10T00:11:19;10.27;;;8.43;;
7903;SDS011;3997;48.416;8.512;2023-04-10T00:13:46;8.82;;;7.70;;
7903;SDS011;3997;48.416;8.512;2023-04-10T00:16:12;8.65;;;7.75;;
7903;SDS011;3997;48.416;8.512;2023-04-10T00:18:41;8.95;;;7.20;;
7903;SDS011;3997;48.416;8.512;2023-04-10T00:21:07;8.45;;;7.05;;
7903;SDS011;3997;48.416;8.512;2023-04-10T00:23:33;9.02;;;7.43;;
7903;SDS011;3997;48.416;8.512;2023-04-10T00:26:00;7.85;;;6.95;;
7903;SDS011;3997;48.416;8.512;2023-04-10T00:28:26;8.93;;;7.72;;
7903;SDS011;3997;48.416;8.512;2023-04-10T00:30:53;10.80;;;8.48;;
7903;SDS011;3997;48.416;8.512;2023-04-10T00:33:19;8.23;;;6.65;;
7903;SDS011;3997;48.416;8.512;2023-04-10T00:35:47;9.10;;;7.90;;
7903;SDS011;3997;48.416;8.512;2023-04-10T00:38:14;9.02;;;8.02;;
7903;SDS011;3997;48.416;8.512;2023-04-10T00:40:40;9.88;;;7.63;;
7903;SDS011;3997;48.416;8.512;2023-04-10T00:43:07;7.85;;;7.05;;
7903;SDS011;3997;48.416;8.512;2023-04-10T00:45:33;7.70;;;6.90;;
7903;SDS011;3997;48.416;8.512;2023-04-10T00:48:00;7.10;;;5.78;;
7903;SDS011;3997;48.416;8.512;2023-04-10T00:50:26;6.70;;;5.82;;
7903;SDS011;3997;48.416;8.512;2023-04-10T00:52:54;6.78;;;6.07;;
7903;SDS011;3997;48.416;8.512;2023-04-10T00:55:21;6.80;;;6.10;;
7903;SDS011;3997;48.416;8.512;2023-04-10T00:57:48;9.18;;;6.38;;
7903;SDS011;3997;48.416;8.512;2023-04-10T01:00:15;7.90;;;6.68;;
7903;SDS011;3997;48.416;8.512;2023-04-10T01:02:42;8.25;;;7.05;;
7903;SDS011;3997;48.416;8.512;2023-04-10T01:05:08;10.32;;;8.32;;
7903;SDS011;3997;48.416;8.512;2023-04-10T01:07:39;9.52;;;7.15;;
7903;SDS011;3997;48.416;8.512;2023-04-10T01:10:10;8.55;;;7.05;;
7903;SDS011;3997;48.416;8.512;2023-04-10T01:12:42;8.30;;;7.07;;
7903;SDS011;3997;48.416;8.512;2023-04-10T01:15:11;8.50;;;7.10;;
7903;SDS011;3997;48.416;8.512;2023-04-10T01:17:40;8.90;;;7.45;;
7903;SDS011;3997;48.416;8.512;2023-04-10T01:20:08;8.38;;;7.38;;
7903;SDS011;3997;48.416;8.512;2023-04-10T01:22:36;8.68;;;7.20;;
7903;SDS011;3997;48.416;8.512;2023-04-10T01:25:27;8.93;;;7.30;;
7903;SDS011;3997;48.416;8.512;2023-04-10T01:28:00;7.63;;;6.63;;
7903;SDS011;3997;48.416;8.512;2023-04-10T01:30:31;7.57;;;6.78;;
7903;SDS011;3997;48.416;8.512;2023-04-10T01:33:00;8.40;;;7.40;;
7903;SDS011;3997;48.416;8.512;2023-04-10T01:35:27;7.38;;;6.40;;
7903;SDS011;3997;48.416;8.512;2023-04-10T01:37:54;9.15;;;7.55;;
7903;SDS011;3997;48.416;8.512;2023-04-10T01:40:21;7.38;;;6.65;;
7903;SDS011;3997;48.416;8.512;2023-04-10T01:42:50;9.80;;;8.05;;
7903;SDS011;3997;48.416;8.512;2023-04-10T01:45:19;9.65;;;7.78;;
7903;SDS011;3997;48.416;8.512;2023-04-10T01:47:47;9.68;;;7.95;;
7903;SDS011;3997;48.416;8.512;2023-04-10T01:50:14;10.10;;;7.57;;
7903;SDS011;3997;48.416;8.512;2023-04-10T01:52:41;8.90;;;7.35;;
7903;SDS011;3997;48.416;8.512;2023-04-10T01:55:08;9.27;;;8.00;;
7903;SDS011;3997;48.416;8.512;2023-04-10T01:57:35;9.52;;;8.02;;
7903;SDS011;3997;48.416;8.512;2023-04-10T02:00:02;9.90;;;8.52;;
7903;SDS011;3997;48.416;8.512;2023-04-10T02:02:29;9.35;;;8.20;;
7903;SDS011;3997;48.416;8.512;2023-04-10T02:04:57;8.32;;;7.10;;
7903;SDS011;3997;48.416;8.512;2023-04-10T02:07:24;9.32;;;7.68;;
7903;SDS011;3997;48.416;8.512;2023-04-10T02:09:53;9.05;;;7.00;;
7903;SDS011;3997;48.416;8.512;2023-04-10T02:12:20;8.93;;;7.38;;
7903;SDS011;3997;48.416;8.512;2023-04-10T02:14:47;8.07;;;6.18;;
7903;SDS011;3997;48.416;8.512;2023-04-10T02:17:17;9.07;;;7.25;;
7903;SDS011;3997;48.416;8.512;2023-04-10T02:19:46;9.43;;;7.47;;
7903;SDS011;3997;48.416;8.512;2023-04-10T02:22:15;9.82;;;7.22;;
7903;SDS011;3997;48.416;8.512;2023-04-10T02:24:42;7.68;;;6.65;;
7903;SDS011;3997;48.416;8.512;2023-04-10T02:27:08;8.93;;;7.60;;
7903;SDS011;3997;48.416;8.512;2023-04-10T02:29:35;7.78;;;6.70;;
7903;SDS011;3997;48.416;8.512;2023-04-10T02:32:01;8.27;;;6.82;;
7903;SDS011;3997;48.416;8.512;2023-04-10T02:34:28;7.60;;;6.30;;
7903;SDS011;3997;48.416;8.512;2023-04-10T02:36:55;8.10;;;6.65;;
7903;SDS011;3997;48.416;8.512;2023-04-10T02:39:22;9.00;;;6.50;;
7903;SDS011;3997;48.416;8.512;2023-04-10T02:41:49;9.27;;;7.55;;
7903;SDS011;3997;48.416;8.512;2023-04-10T02:44:15;7.45;;;6.60;;
7903;SDS011;3997;48.416;8.512;2023-04-10T02:46:42;8.85;;;7.45;;
7903;SDS011;3997;48.416;8.512;2023-04-10T02:49:08;8.57;;;7.03;;
7903;SDS011;3997;48.416;8.512;2023-04-10T02:51:35;8.25;;;7.03;;
7903;SDS011;3997;48.416;8.512;2023-04-10T02:54:01;8.93;;;7.40;;
7903;SDS011;3997;48.416;8.512;2023-04-10T02:56:29;10.00;;;8.15;;
7903;SDS011;3997;48.416;8.512;2023-04-10T02:58:58;11.15;;;7.80;;
7903;SDS011;3997;48.416;8.512;2023-04-10T03:01:24;8.85;;;7.15;;
7903;SDS011;3997;48.416;8.512;2023-04-10T03:03:51;9.80;;;7.35;;
7903;SDS011;3997;48.416;8.512;2023-04-10T03:06:17;8.15;;;6.93;;
7903;SDS011;3997;48.416;8.512;2023-04-10T03:08:45;9.43;;;7.47;;
7903;SDS011;3997;48.416;8.512;2023-04-10T03:11:11;8.43;;;6.65;;
7903;SDS011;3997;48.416;8.512;2023-04-10T03:13:39;8.65;;;7.35;;
7903;SDS011;3997;48.416;8.512;2023-04-10T03:16:05;8.13;;;6.78;;
7903;SDS011;3997;48.416;8.512;2023-04-10T03:18:32;8.40;;;6.50;;
7903;SDS011;3997;48.416;8.512;2023-04-10T03:20:59;7.88;;;6.30;;
7903;SDS011;3997;48.416;8.512;2023-04-10T03:23:26;8.50;;;6.70;;
7903;SDS011;3997;48.416;8.512;2023-04-10T03:25:52;7.47;;;6.43;;
7903;SDS011;3997;48.416;8.512;2023-04-10T03:28:19;7.88;;;6.65;;
7903;SDS011;3997;48.416;8.512;2023-04-10T03:30:47;8.68;;;7.13;;
7903;SDS011;3997;48.416;8.512;2023-04-10T03:33:13;8.43;;;7.10;;
7903;SDS011;3997;48.416;8.512;2023-04-10T03:35:40;7.68;;;6.72;;
7903;SDS011;3997;48.416;8.512;2023-04-10T03:38:06;9.68;;;7.38;;
7903;SDS011;3997;48.416;8.512;2023-04-10T03:40:33;8.60;;;7.13;;
7903;SDS011;3997;48.416;8.512;2023-04-10T03:42:59;9.55;;;7.65;;
7903;SDS011;3997;48.416;8.512;2023-04-10T03:45:26;10.23;;;8.05;;
7903;SDS011;3997;48.416;8.512;2023-04-10T03:47:54;8.48;;;7.55;;
7903;SDS011;3997;48.416;8.512;2023-04-10T03:50:20;10.82;;;7.70;;
7903;SDS011;3997;48.416;8.512;2023-04-10T03:52:47;9.32;;;7.03;;
7903;SDS011;3997;48.416;8.512;2023-04-10T03:55:13;7.82;;;6.35;;
7903;SDS011;3997;48.416;8.512;2023-04-10T03:57:43;9.25;;;7.25;;
7903;SDS011;3997;48.416;8.512;2023-04-10T04:00:10;9.43;;;6.60;;
7903;SDS011;3997;48.416;8.512;2023-04-10T04:02:36;7.50;;;6.05;;
7903;SDS011;3997;48.416;8.512;2023-04-10T04:05:04;7.72;;;6.40;;
7903;SDS011;3997;48.416;8.512;2023-04-10T04:07:31;8.75;;;6.70;;
7903;SDS011;3997;48.416;8.512;2023-04-10T04:09:57;7.72;;;6.57;;
7903;SDS011;3997;48.416;8.512;2023-04-10T04:12:24;7.88;;;6.57;;
7903;SDS011;3997;48.416;8.512;2023-04-10T04:14:50;7.28;;;6.18;;
7903;SDS011;3997;48.416;8.512;2023-04-10T04:17:17;8.18;;;6.82;;
7903;SDS011;3997;48.416;8.512;2023-04-10T04:19:43;6.68;;;5.95;;
7903;SDS011;3997;48.416;8.512;2023-04-10T04:22:11;7.63;;;6.57;;
7903;SDS011;3997;48.416;8.512;2023-04-10T04:24:37;8.02;;;6.78;;
7903;SDS011;3997;48.416;8.512;2023-04-10T04:27:04;8.48;;;7.30;;
7903;SDS011;3997;48.416;8.512;2023-04-10T04:29:30;7.40;;;6.65;;
7903;SDS011;3997;48.416;8.512;2023-04-10T04:31:57;8.57;;;7.38;;
7903;SDS011;3997;48.416;8.512;2023-04-10T04:34:23;8.15;;;7.22;;
7903;SDS011;3997;48.416;8.512;2023-04-10T04:36:50;33.88;;;25.55;;
7903;SDS011;3997;48.416;8.512;2023-04-10T04:39:17;50.22;;;39.25;;
7903;SDS011;3997;48.416;8.512;2023-04-10T04:41:45;30.08;;;22.90;;
7903;SDS011;3997;48.416;8.512;2023-04-10T04:44:11;13.88;;;12.23;;
7903;SDS011;3997;48.416;8.512;2023-04-10T04:46:37;9.57;;;7.55;;
7903;SDS011;3997;48.416;8.512;2023-04-10T04:49:04;9.07;;;7.32;;
7903;SDS011;3997;48.416;8.512;2023-04-10T04:51:30;12.98;;;10.25;;
7903;SDS011;3997;48.416;8.512;2023-04-10T04:53:57;10.95;;;7.97;;
7903;SDS011;3997;48.416;8.512;2023-04-10T04:56:25;9.70;;;7.13;;
7903;SDS011;3997;48.416;8.512;2023-04-10T04:58:51;9.30;;;6.95;;
7903;SDS011;3997;48.416;8.512;2023-04-10T05:01:17;9.05;;;7.20;;
7903;SDS011;3997;48.416;8.512;2023-04-10T05:03:44;8.32;;;7.03;;
7903;SDS011;3997;48.416;8.512;2023-04-10T05:06:10;8.68;;;6.88;;
7903;SDS011;3997;48.416;8.512;2023-04-10T05:08:38;11.85;;;8.88;;
7903;SDS011;3997;48.416;8.512;2023-04-10T05:11:05;8.52;;;7.55;;
7903;SDS011;3997;48.416;8.512;2023-04-10T05:13:32;9.35;;;7.10;;
7903;SDS011;3997;48.416;8.512;2023-04-10T05:15:59;9.13;;;7.80;;
7903;SDS011;3997;48.416;8.512;2023-04-10T05:18:26;8.82;;;7.25;;
7903;SDS011;3997;48.416;8.512;2023-04-10T05:20:52;9.55;;;7.13;;
7903;SDS011;3997;48.416;8.512;2023-04-10T05:23:19;8.80;;;7.50;;
7903;SDS011;3997;48.416;8.512;2023-04-10T05:25:45;9.45;;;7.90;;
7903;SDS011;3997;48.416;8.512;2023-04-10T05:28:12;11.02;;;8.65;;
7903;SDS011;3997;48.416;8.512;2023-04-10T05:30:39;8.90;;;7.85;;
7903;SDS011;3997;48.416;8.512;2023-04-10T05:33:06;8.43;;;7.35;;
7903;SDS011;3997;48.416;8.512;2023-04-10T05:35:32;9.73;;;6.18;;
7903;SDS011;3997;48.416;8.512;2023-04-10T05:37:59;9.25;;;7.15;;
7903;SDS011;3997;48.416;8.512;2023-04-10T05:40:25;11.88;;;9.20;;
7903;SDS011;3997;48.416;8.512;2023-04-10T05:42:52;25.52;;;19.17;;
7903;SDS011;3997;48.416;8.512;2023-04-10T05:45:18;15.60;;;13.23;;
7903;SDS011;3997;48.416;8.512;2023-04-10T05:47:46;19.05;;;16.98;;
7903;SDS011;3997;48.416;8.512;2023-04-10T05:50:12;13.20;;;11.60;;
7903;SDS011;3997;48.416;8.512;2023-04-10T05:52:39;13.32;;;10.57;;
7903;SDS011;3997;48.416;8.512;2023-04-10T05:55:06;11.70;;;10.18;;
7903;SDS011;3997;48.416;8.512;2023-04-10T05:57:32;16.35;;;10.98;;
7903;SDS011;3997;48.416;8.512;2023-04-10T05:59:59;8.70;;;6.60;;
7903;SDS011;3997;48.416;8.512;2023-04-10T06:02:25;12.50;;;9.75;;
7903;SDS011;3997;48.416;8.512;2023-04-10T06:04:53;10.52;;;8.90;;
7903;SDS011;3997;48.416;8.512;2023-04-10T06:07:20;9.40;;;8.32;;
7903;SDS011;3997;48.416;8.512;2023-04-10T06:09:46;11.98;;;9.32;;
7903;SDS011;3997;48.416;8.512;2023-04-10T06:12:12;13.18;;;8.75;;
7903;SDS011;3997;48.416;8.512;2023-04-10T06:14:39;13.05;;;8.70;;
7903;SDS011;3997;48.416;8.512;2023-04-10T06:17:05;10.35;;;8.23;;
7903;SDS011;3997;48.416;8.512;2023-04-10T06:19:32;10.05;;;7.78;;
7903;SDS011;3997;48.416;8.512;2023-04-10T06:22:00;9.50;;;7.85;;
7903;SDS011;3997;48.416;8.512;2023-04-10T06:24:26;7.20;;;6.00;;
7903;SDS011;3997;48.416;8.512;2023-04-10T06:26:52;6.05;;;5.35;;
7903;SDS011;3997;48.416;8.512;2023-04-10T06:29:20;10.38;;;8.68;;
7903;SDS011;3997;48.416;8.512;2023-04-10T06:31:47;12.75;;;9.52;;
7903;SDS011;3997;48.416;8.512;2023-04-10T06:34:13;10.63;;;8.50;;
7903;SDS011;3997;48.416;8.512;2023-04-10T06:36:40;9.80;;;7.90;;
7903;SDS011;3997;48.416;8.512;2023-04-10T06:39:08;12.25;;;8.70;;
7903;SDS011;3997;48.416;8.512;2023-04-10T06:41:35;10.18;;;8.57;;
7903;SDS011;3997;48.416;8.512;2023-04-10T06:44:02;11.43;;;8.13;;
7903;SDS011;3997;48.416;8.512;2023-04-10T06:46:28;49.60;;;35.22;;
7903;SDS011;3997;48.416;8.512;2023-04-10T06:48:54;45.85;;;33.30;;
7903;SDS011;3997;48.416;8.512;2023-04-10T06:51:21;16.08;;;11.43;;
7903;SDS011;3997;48.416;8.512;2023-04-10T06:53:47;10.35;;;9.10;;
7903;SDS011;3997;48.416;8.512;2023-04-10T06:56:15;24.80;;;16.73;;
7903;SDS011;3997;48.416;8.512;2023-04-10T06:58:42;8.38;;;7.07;;
7903;SDS011;3997;48.416;8.512;2023-04-10T07:01:08;12.30;;;8.40;;
7903;SDS011;3997;48.416;8.512;2023-04-10T07:03:35;10.27;;;8.13;;
7903;SDS011;3997;48.416;8.512;2023-04-10T07:06:01;13.90;;;10.40;;
7903;SDS011;3997;48.416;8.512;2023-04-10T07:08:28;16.75;;;13.32;;
7903;SDS011;3997;48.416;8.512;2023-04-10T07:10:54;15.35;;;10.70;;
7903;SDS011;3997;48.416;8.512;2023-04-10T07:13:22;11.18;;;9.35;;
7903;SDS011;3997;48.416;8.512;2023-04-10T07:15:48;10.63;;;7.68;;
7903;SDS011;3997;48.416;8.512;2023-04-10T07:18:15;8.73;;;6.80;;
7903;SDS011;3997;48.416;8.512;2023-04-10T07:20:41;8.02;;;6.55;;
7903;SDS011;3997;48.416;8.512;2023-04-10T07:23:08;6.95;;;5.95;;
7903;SDS011;3997;48.416;8.512;2023-04-10T07:25:34;7.85;;;6.50;;
7903;SDS011;3997;48.416;8.512;2023-04-10T07:28:01;7.40;;;6.07;;
7903;SDS011;3997;48.416;8.512;2023-04-10T07:30:28;7.75;;;5.55;;
7903;SDS011;3997;48.416;8.512;2023-04-10T07:32:55;7.15;;;5.75;;
7903;SDS011;3997;48.416;8.512;2023-04-10T07:35:21;7.00;;;5.53;;
7903;SDS011;3997;48.416;8.512;2023-04-10T07:37:48;6.95;;;5.82;;
7903;SDS011;3997;48.416;8.512;2023-04-10T07:40:16;6.38;;;5.60;;
7903;SDS011;3997;48.416;8.512;2023-04-10T07:42:43;6.28;;;5.47;;
7903;SDS011;3997;48.416;8.512;2023-04-10T07:45:10;6.70;;;5.78;;
7903;SDS011;3997;48.416;8.512;2023-04-10T07:47:38;7.13;;;5.82;;
7903;SDS011;3997;48.416;8.512;2023-04-10T07:50:05;5.70;;;5.10;;
7903;SDS011;3997;48.416;8.512;2023-04-10T07:52:32;4.32;;;3.92;;
7903;SDS011;3997;48.416;8.512;2023-04-10T07:55:00;4.88;;;4.30;;
7903;SDS011;3997;48.416;8.512;2023-04-10T07:57:26;4.25;;;3.95;;
7903;SDS011;3997;48.416;8.512;2023-04-10T07:59:52;4.82;;;4.35;;
7903;SDS011;3997;48.416;8.512;2023-04-10T08:02:19;4.45;;;3.97;;
7903;SDS011;3997;48.416;8.512;2023-04-10T08:04:47;4.40;;;4.00;;
7903;SDS011;3997;48.416;8.512;2023-04-10T08:07:13;4.40;;;4.00;;
7903;SDS011;3997;48.416;8.512;2023-04-10T08:09:39;4.57;;;4.15;;
7903;SDS011;3997;48.416;8.512;2023-04-10T08:12:06;4.25;;;3.65;;
7903;SDS011;3997;48.416;8.512;2023-04-10T08:14:32;4.75;;;4.35;;
7903;SDS011;3997;48.416;8.512;2023-04-10T08:16:59;4.45;;;4.05;;
7903;SDS011;3997;48.416;8.512;2023-04-10T08:19:25;5.35;;;4.38;;
7903;SDS011;3997;48.416;8.512;2023-04-10T08:21:53;4.32;;;3.92;;
7903;SDS011;3997;48.416;8.512;2023-04-10T08:24:20;4.05;;;3.75;;
7903;SDS011;3997;48.416;8.512;2023-04-10T08:26:47;4.35;;;3.95;;
7903;SDS011;3997;48.416;8.512;2023-04-10T08:29:13;4.03;;;3.72;;
7903;SDS011;3997;48.416;8.512;2023-04-10T08:31:40;5.50;;;3.70;;
7903;SDS011;3997;48.416;8.512;2023-04-10T08:34:06;4.40;;;4.00;;
7903;SDS011;3997;48.416;8.512;2023-04-10T08:36:33;3.78;;;3.47;;
7903;SDS011;3997;48.416;8.512;2023-04-10T08:39:00;4.50;;;4.07;;
7903;SDS011;3997;48.416;8.512;2023-04-10T08:41:27;4.60;;;4.20;;
7903;SDS011;3997;48.416;8.512;2023-04-10T08:43:53;4.07;;;3.78;;
7903;SDS011;3997;48.416;8.512;2023-04-10T08:46:22;4.45;;;4.10;;
7903;SDS011;3997;48.416;8.512;2023-04-10T08:48:51;3.65;;;3.45;;
7903;SDS011;3997;48.416;8.512;2023-04-10T08:51:19;4.50;;;4.20;;
7903;SDS011;3997;48.416;8.512;2023-04-10T08:53:47;4.30;;;4.00;;
7903;SDS011;3997;48.416;8.512;2023-04-10T08:56:17;3.90;;;3.70;;
7903;SDS011;3997;48.416;8.512;2023-04-10T08:58:43;4.38;;;3.97;;
7903;SDS011;3997;48.416;8.512;2023-04-10T09:01:10;5.15;;;4.75;;
7903;SDS011;3997;48.416;8.512;2023-04-10T09:03:36;4.28;;;3.97;;
7903;SDS011;3997;48.416;8.512;2023-04-10T09:06:03;4.28;;;3.97;;
7903;SDS011;3997;48.416;8.512;2023-04-10T09:08:30;3.95;;;3.67;;
7903;SDS011;3997;48.416;8.512;2023-04-10T09:10:56;3.75;;;3.50;;
7903;SDS011;3997;48.416;8.512;2023-04-10T09:13:37;3.70;;;3.50;;
7903;SDS011;3997;48.416;8.512;2023-04-10T09:16:04;3.90;;;3.65;;
7903;SDS011;3997;48.416;8.512;2023-04-10T09:18:41;4.30;;;4.00;;
7903;SDS011;3997;48.416;8.512;2023-04-10T09:21:08;3.65;;;3.45;;
7903;SDS011;3997;48.416;8.512;2023-04-10T09:23:34;4.00;;;3.70;;
7903;SDS011;3997;48.416;8.512;2023-04-10T09:26:02;3.70;;;3.50;;
7903;SDS011;3997;48.416;8.512;2023-04-10T09:28:30;4.40;;;4.10;;
7903;SDS011;3997;48.416;8.512;2023-04-10T09:31:00;3.78;;;3.47;;
7903;SDS011;3997;48.416;8.512;2023-04-10T09:33:27;3.65;;;3.45;;
7903;SDS011;3997;48.416;8.512;2023-04-10T09:35:54;4.07;;;3.88;;
7903;SDS011;3997;48.416;8.512;2023-04-10T09:38:22;4.10;;;3.90;;
7903;SDS011;3997;48.416;8.512;2023-04-10T09:40:49;3.75;;;3.55;;
7903;SDS011;3997;48.416;8.512;2023-04-10T09:43:17;4.00;;;3.70;;
7903;SDS011;3997;48.416;8.512;2023-04-10T09:45:47;3.65;;;3.45;;
7903;SDS011;3997;48.416;8.512;2023-04-10T09:48:15;3.60;;;3.40;;
7903;SDS011;3997;48.416;8.512;2023-04-10T09:50:41;3.90;;;3.70;;
7903;SDS011;3997;48.416;8.512;2023-04-10T09:53:08;3.85;;;3.65;;
7903;SDS011;3997;48.416;8.512;2023-04-10T09:55:35;3.90;;;3.70;;
7903;SDS011;3997;48.416;8.512;2023-04-10T09:58:02;3.88;;;3.67;;
7903;SDS011;3997;48.416;8.512;2023-04-10T10:00:29;3.70;;;3.50;;
7903;SDS011;3997;48.416;8.512;2023-04-10T10:02:55;3.20;;;3.10;;
7903;SDS011;3997;48.416;8.512;2023-04-10T10:05:24;3.70;;;3.50;;
7903;SDS011;3997;48.416;8.512;2023-04-10T10:07:54;3.05;;;2.88;;
7903;SDS011;3997;48.416;8.512;2023-04-10T10:10:21;3.10;;;2.90;;
7903;SDS011;3997;48.416;8.512;2023-04-10T10:12:48;3.20;;;3.00;;
7903;SDS011;3997;48.416;8.512;2023-04-10T10:15:17;3.22;;;3.03;;
7903;SDS011;3997;48.416;8.512;2023-04-10T10:17:54;3.00;;;2.80;;
7903;SDS011;3997;48.416;8.512;2023-04-10T10:20:26;3.47;;;3.28;;
7903;SDS011;3997;48.416;8.512;2023-04-10T10:22:53;3.40;;;3.20;;
7903;SDS011;3997;48.416;8.512;2023-04-10T10:25:20;3.10;;;2.90;;
7903;SDS011;3997;48.416;8.512;2023-04-10T10:27:46;3.30;;;3.10;;
7903;SDS011;3997;48.416;8.512;2023-04-10T10:30:14;2.88;;;2.78;;
7903;SDS011;3997;48.416;8.512;2023-04-10T10:32:43;2.83;;;2.72;;
7903;SDS011;3997;48.416;8.512;2023-04-10T10:35:09;3.17;;;3.08;;
7903;SDS011;3997;48.416;8.512;2023-04-10T10:37:37;3.00;;;2.90;;
7903;SDS011;3997;48.416;8.512;2023-04-10T10:40:05;3.00;;;2.90;;
7903;SDS011;3997;48.416;8.512;2023-04-10T10:42:35;2.72;;;2.63;;
7903;SDS011;3997;48.416;8.512;2023-04-10T10:45:07;2.60;;;2.50;;
7903;SDS011;3997;48.416;8.512;2023-04-10T10:47:37;2.45;;;2.35;;
7903;SDS011;3997;48.416;8.512;2023-04-10T10:50:05;2.83;;;2.63;;
7903;SDS011;3997;48.416;8.512;2023-04-10T10:52:35;2.70;;;2.50;;
7903;SDS011;3997;48.416;8.512;2023-04-10T10:57:47;2.35;;;2.25;;
7903;SDS011;3997;48.416;8.512;2023-04-10T11:00:16;2.70;;;2.60;;
7903;SDS011;3997;48.416;8.512;2023-04-10T11:02:42;2.60;;;2.50;;
7903;SDS011;3997;48.416;8.512;2023-04-10T11:05:08;2.70;;;2.60;;
7903;SDS011;3997;48.416;8.512;2023-04-10T11:10:23;1.88;;;1.88;;
7903;SDS011;3997;48.416;8.512;2023-04-10T11:13:17;2.00;;;2.00;;
7903;SDS011;3997;48.416;8.512;2023-04-10T11:15:43;2.30;;;2.20;;
7903;SDS011;3997;48.416;8.512;2023-04-10T11:18:10;1.95;;;1.90;;
7903;SDS011;3997;48.416;8.512;2023-04-10T11:21:06;2.15;;;2.05;;
7903;SDS011;3997;48.416;8.512;2023-04-10T11:23:27;2.20;;;2.10;;
7903;SDS011;3997;48.416;8.512;2023-04-10T11:25:54;2.30;;;2.20;;
7903;SDS011;3997;48.416;8.512;2023-04-10T11:28:35;2.13;;;2.10;;
7903;SDS011;3997;48.416;8.512;2023-04-10T11:31:17;2.80;;;2.70;;
7903;SDS011;3997;48.416;8.512;2023-04-10T11:33:44;2.60;;;2.50;;
7903;SDS011;3997;48.416;8.512;2023-04-10T11:36:12;3.50;;;3.30;;
7903;SDS011;3997;48.416;8.512;2023-04-10T11:38:39;2.78;;;2.67;;
7903;SDS011;3997;48.416;8.512;2023-04-10T11:41:06;2.33;;;2.28;;
7903;SDS011;3997;48.416;8.512;2023-04-10T11:43:32;2.50;;;2.40;;
7903;SDS011;3997;48.416;8.512;2023-04-10T11:46:05;2.55;;;2.45;;
7903;SDS011;3997;48.416;8.512;2023-04-10T11:48:32;2.42;;;2.33;;
7903;SDS011;3997;48.416;8.512;2023-04-10T11:51:07;2.30;;;2.20;;
7903;SDS011;3997;48.416;8.512;2023-04-10T11:53:34;2.50;;;2.30;;
7903;SDS011;3997;48.416;8.512;2023-04-10T11:56:00;2.20;;;2.10;;
7903;SDS011;3997;48.416;8.512;2023-04-10T11:58:28;2.30;;;2.20;;
7903;SDS011;3997;48.416;8.512;2023-04-10T12:00:59;2.67;;;2.58;;
7903;SDS011;3997;48.416;8.512;2023-04-10T12:03:37;2.40;;;2.30;;
7903;SDS011;3997;48.416;8.512;2023-04-10T12:06:05;2.38;;;2.28;;
7903;SDS011;3997;48.416;8.512;2023-04-10T12:08:32;2.15;;;2.08;;
7903;SDS011;3997;48.416;8.512;2023-04-10T12:10:59;2.58;;;2.38;;
7903;SDS011;3997;48.416;8.512;2023-04-10T12:13:25;2.53;;;2.42;;
7903;SDS011;3997;48.416;8.512;2023-04-10T12:15:52;2.47;;;2.38;;
7903;SDS011;3997;48.416;8.512;2023-04-10T12:18:19;2.15;;;2.05;;
7903;SDS011;3997;48.416;8.512;2023-04-10T12:20:47;2.08;;;2.05;;
7903;SDS011;3997;48.416;8.512;2023-04-10T12:23:15;2.53;;;2.42;;
7903;SDS011;3997;48.416;8.512;2023-04-10T12:25:42;2.20;;;2.20;;
7903;SDS011;3997;48.416;8.512;2023-04-10T12:28:14;2.38;;;2.28;;
7903;SDS011;3997;48.416;8.512;2023-04-10T12:30:44;2.40;;;2.30;;
7903;SDS011;3997;48.416;8.512;2023-04-10T12:33:11;2.38;;;2.28;;
7903;SDS011;3997;48.416;8.512;2023-04-10T12:35:38;2.83;;;2.42;;
7903;SDS011;3997;48.416;8.512;2023-04-10T12:38:05;2.30;;;2.30;;
7903;SDS011;3997;48.416;8.512;2023-04-10T12:40:32;2.10;;;2.10;;
7903;SDS011;3997;48.416;8.512;2023-04-10T12:42:58;2.30;;;2.20;;
7903;SDS011;3997;48.416;8.512;2023-04-10T12:45:39;2.13;;;2.03;;
7903;SDS011;3997;48.416;8.512;2023-04-10T12:48:06;2.13;;;2.10;;
7903;SDS011;3997;48.416;8.512;2023-04-10T12:50:32;1.95;;;1.95;;
7903;SDS011;3997;48.416;8.512;2023-04-10T12:53:03;1.88;;;1.77;;
7903;SDS011;3997;48.416;8.512;2023-04-10T12:55:32;1.73;;;1.73;;
7903;SDS011;3997;48.416;8.512;2023-04-10T12:57:59;2.00;;;2.00;;
7903;SDS011;3997;48.416;8.512;2023-04-10T13:00:40;1.95;;;1.95;;
7903;SDS011;3997;48.416;8.512;2023-04-10T13:03:07;1.80;;;1.80;;
7903;SDS011;3997;48.416;8.512;2023-04-10T13:05:33;2.28;;;2.17;;
7903;SDS011;3997;48.416;8.512;2023-04-10T13:08:00;2.03;;;2.03;;
7903;SDS011;3997;48.416;8.512;2023-04-10T13:10:26;2.20;;;2.10;;
7903;SDS011;3997;48.416;8.512;2023-04-10T13:12:54;2.20;;;2.10;;
7903;SDS011;3997;48.416;8.512;2023-04-10T13:15:21;2.10;;;2.00;;
7903;SDS011;3997;48.416;8.512;2023-04-10T13:17:48;2.00;;;2.00;;
7903;SDS011;3997;48.416;8.512;2023-04-10T13:20:14;2.35;;;2.25;;
7903;SDS011;3997;48.416;8.512;2023-04-10T13:22:41;2.00;;;2.00;;
7903;SDS011;3997;48.416;8.512;2023-04-10T13:25:08;2.10;;;2.00;;
7903;SDS011;3997;48.416;8.512;2023-04-10T13:27:34;2.53;;;2.42;;
7903;SDS011;3997;48.416;8.512;2023-04-10T13:30:02;2.40;;;2.30;;
7903;SDS011;3997;48.416;8.512;2023-04-10T13:32:28;2.30;;;2.20;;
7903;SDS011;3997;48.416;8.512;2023-04-10T13:34:55;2.45;;;2.35;;
7903;SDS011;3997;48.416;8.512;2023-04-10T13:37:21;2.20;;;2.10;;
7903;SDS011;3997;48.416;8.512;2023-04-10T13:39:48;2.40;;;2.30;;
7903;SDS011;3997;48.416;8.512;2023-04-10T13:42:14;2.35;;;2.25;;
7903;SDS011;3997;48.416;8.512;2023-04-10T13:44:40;2.22;;;2.13;;
7903;SDS011;3997;48.416;8.512;2023-04-10T13:47:08;2.33;;;2.22;;
7903;SDS011;3997;48.416;8.512;2023-04-10T13:49:35;2.50;;;2.30;;
7903;SDS011;3997;48.416;8.512;2023-04-10T13:52:01;2.47;;;2.38;;
7903;SDS011;3997;48.416;8.512;2023-04-10T13:54:27;2.50;;;2.40;;
7903;SDS011;3997;48.416;8.512;2023-04-10T13:56:54;2.50;;;2.40;;
7903;SDS011;3997;48.416;8.512;2023-04-10T13:59:21;2.40;;;2.30;;
7903;SDS011;3997;48.416;8.512;2023-04-10T14:01:48;2.55;;;2.45;;
7903;SDS011;3997;48.416;8.512;2023-04-10T14:04:17;2.40;;;2.30;;
7903;SDS011;3997;48.416;8.512;2023-04-10T14:06:43;2.42;;;2.33;;
7903;SDS011;3997;48.416;8.512;2023-04-10T14:09:10;2.65;;;2.45;;
7903;SDS011;3997;48.416;8.512;2023-04-10T14:11:36;2.40;;;2.30;;
7903;SDS011;3997;48.416;8.512;2023-04-10T14:14:03;2.30;;;2.20;;
7903;SDS011;3997;48.416;8.512;2023-04-10T14:16:29;2.78;;;2.67;;
7903;SDS011;3997;48.416;8.512;2023-04-10T14:18:55;2.30;;;2.20;;
7903;SDS011;3997;48.416;8.512;2023-04-10T14:21:23;2.60;;;2.50;;
7903;SDS011;3997;48.416;8.512;2023-04-10T14:23:50;2.50;;;2.40;;
7903;SDS011;3997;48.416;8.512;2023-04-10T14:26:16;2.40;;;2.30;;
7903;SDS011;3997;48.416;8.512;2023-04-10T14:28:42;2.53;;;2.42;;
7903;SDS011;3997;48.416;8.512;2023-04-10T14:31:09;2.85;;;2.70;;
7903;SDS011;3997;48.416;8.512;2023-04-10T14:33:36;2.72;;;2.63;;
7903;SDS011;3997;48.416;8.512;2023-04-10T14:36:03;2.47;;;2.38;;
7903;SDS011;3997;48.416;8.512;2023-04-10T14:38:31;2.45;;;2.33;;
7903;SDS011;3997;48.416;8.512;2023-04-10T14:40:57;2.40;;;2.28;;
7903;SDS011;3997;48.416;8.512;2023-04-10T14:43:23;2.60;;;2.50;;
7903;SDS011;3997;48.416;8.512;2023-04-10T14:45:50;2.28;;;2.17;;
7903;SDS011;3997;48.416;8.512;2023-04-10T14:48:16;2.40;;;2.30;;
7903;SDS011;3997;48.416;8.512;2023-04-10T14:50:43;2.67;;;2.58;;
7903;SDS011;3997;48.416;8.512;2023-04-10T14:53:10;2.50;;;2.40;;
7903;SDS011;3997;48.416;8.512;2023-04-10T14:55:38;2.42;;;2.33;;
7903;SDS011;3997;48.416;8.512;2023-04-10T14:58:04;2.05;;;2.00;;
7903;SDS011;3997;48.416;8.512;2023-04-10T15:00:33;2.38;;;2.28;;
7903;SDS011;3997;48.416;8.512;2023-04-10T15:02:59;2.20;;;2.10;;
7903;SDS011;3997;48.416;8.512;2023-04-10T15:05:26;2.30;;;2.20;;
7903;SDS011;3997;48.416;8.512;2023-04-10T15:07:52;2.28;;;2.17;;
7903;SDS011;3997;48.416;8.512;2023-04-10T15:10:19;2.22;;;2.13;;
7903;SDS011;3997;48.416;8.512;2023-04-10T15:12:46;1.88;;;1.83;;
7903;SDS011;3997;48.416;8.512;2023-04-10T15:15:13;2.20;;;2.10;;
7903;SDS011;3997;48.416;8.512;2023-04-10T15:17:39;2.05;;;1.95;;
7903;SDS011;3997;48.416;8.512;2023-04-10T15:20:06;2.20;;;2.10;;